createdAt,value
2016-09-15T00:00:19.259Z,1013.79
2016-09-15T00:01:19.288Z,1013.75
2016-09-15T00:02:19.622Z,1013.75
2016-09-15T00:03:19.338Z,1013.79
2016-09-15T00:04:19.364Z,1013.78
2016-09-15T00:05:19.392Z,1013.8
2016-09-15T00:06:19.417Z,1013.76
2016-09-15T00:07:19.442Z,1013.78
2016-09-15T00:09:19.497Z,1013.79
2016-09-15T00:10:19.519Z,1013.81
2016-09-15T00:11:19.549Z,1013.81
2016-09-15T00:12:19.573Z,1013.79
2016-09-15T00:13:19.600Z,1013.78
2016-09-15T00:14:19.626Z,1013.76
2016-09-15T00:15:19.650Z,1013.74
2016-09-15T00:16:19.676Z,1013.76
2016-09-15T00:17:19.704Z,1013.79
2016-09-15T00:18:19.728Z,1013.75
2016-09-15T00:19:19.756Z,1013.76
2016-09-15T00:20:19.783Z,1013.76
2016-09-15T00:21:19.805Z,1013.73
2016-09-15T00:22:19.831Z,1013.69
2016-09-15T00:23:19.857Z,1013.78
2016-09-15T00:24:19.885Z,1013.69
2016-09-15T00:25:19.908Z,1013.73
2016-09-15T00:26:19.936Z,1013.77
2016-09-15T00:27:19.964Z,1013.77
2016-09-15T00:28:19.988Z,1013.77
2016-09-15T00:29:20.013Z,1013.77
2016-09-15T00:30:20.089Z,1013.73
2016-09-15T00:31:20.069Z,1013.74
2016-09-15T00:32:20.092Z,1013.72
2016-09-15T00:33:20.119Z,1013.71
2016-09-15T00:34:20.143Z,1013.66
2016-09-15T00:35:20.169Z,1013.64
2016-09-15T00:36:20.195Z,1013.62
2016-09-15T00:37:20.220Z,1013.61
2016-09-15T00:38:20.245Z,1013.6
2016-09-15T00:39:20.274Z,1013.66
2016-09-15T00:41:20.323Z,1013.63
2016-09-15T00:42:20.351Z,1013.63
2016-09-15T00:43:20.386Z,1013.64
2016-09-15T00:44:20.402Z,1013.61
2016-09-15T00:45:20.426Z,1013.59
2016-09-15T00:46:20.453Z,1013.59
2016-09-15T00:47:20.480Z,1013.58
2016-09-15T00:48:20.504Z,1013.58
2016-09-15T00:49:20.531Z,1013.55
2016-09-15T00:50:20.561Z,1013.53
2016-09-15T00:51:20.587Z,1013.54
2016-09-15T00:52:20.610Z,1013.53
2016-09-15T00:53:20.636Z,1013.52
2016-09-15T00:54:20.658Z,1013.54
2016-09-15T00:55:20.687Z,1013.5
2016-09-15T00:57:20.739Z,1013.53
2016-09-15T00:58:20.761Z,1013.54
2016-09-15T00:59:20.787Z,1013.49
2016-09-15T01:00:20.816Z,1013.54
2016-09-15T01:01:20.841Z,1013.56
2016-09-15T01:02:20.914Z,1013.52
2016-09-15T01:03:20.893Z,1013.54
2016-09-15T01:04:20.917Z,1013.52
2016-09-15T01:05:20.943Z,1013.54
2016-09-15T01:06:20.970Z,1013.53
2016-09-15T01:07:20.996Z,1013.54
2016-09-15T01:08:21.019Z,1013.55
2016-09-15T01:09:21.045Z,1013.52
2016-09-15T01:10:21.071Z,1013.52
2016-09-15T01:11:21.097Z,1013.55
2016-09-15T01:13:21.151Z,1013.56
2016-09-15T01:14:21.176Z,1013.56
2016-09-15T01:15:21.200Z,1013.51
2016-09-15T01:16:21.226Z,1013.55
2016-09-15T01:17:21.252Z,1013.53
2016-09-15T01:18:21.277Z,1013.52
2016-09-15T01:19:21.305Z,1013.52
2016-09-15T01:20:21.330Z,1013.5
2016-09-15T01:21:21.354Z,1013.49
2016-09-15T01:22:21.380Z,1013.5
2016-09-15T01:23:21.407Z,1013.46
2016-09-15T01:24:21.430Z,1013.45
2016-09-15T01:25:21.457Z,1013.46
2016-09-15T01:26:21.482Z,1013.42
2016-09-15T01:27:21.509Z,1013.46
2016-09-15T01:29:21.561Z,1013.43
2016-09-15T01:30:21.586Z,1013.4
2016-09-15T01:31:21.612Z,1013.4
2016-09-15T01:32:21.636Z,1013.37
2016-09-15T01:33:21.662Z,1013.35
2016-09-15T01:34:21.687Z,1013.34
2016-09-15T01:35:21.715Z,1013.32
2016-09-15T01:36:21.741Z,1013.31
2016-09-15T01:37:21.766Z,1013.32
2016-09-15T01:38:21.790Z,1013.3
2016-09-15T01:39:21.818Z,1013.29
2016-09-15T01:40:21.841Z,1013.32
2016-09-15T01:41:21.867Z,1013.3
2016-09-15T01:42:21.895Z,1013.33
2016-09-15T01:44:21.947Z,1013.28
2016-09-15T01:45:21.970Z,1013.27
2016-09-15T01:46:21.997Z,1013.25
2016-09-15T01:47:22.024Z,1013.23
2016-09-15T01:48:22.046Z,1013.24
2016-09-15T01:49:22.073Z,1013.2
2016-09-15T01:50:22.098Z,1013.23
2016-09-15T01:51:22.123Z,1013.22
2016-09-15T01:52:22.150Z,1013.26
2016-09-15T01:53:22.174Z,1013.27
2016-09-15T01:54:22.201Z,1013.31
2016-09-15T01:55:22.227Z,1013.3
2016-09-15T01:56:22.252Z,1013.29
2016-09-15T01:57:22.278Z,1013.3
2016-09-15T01:58:22.304Z,1013.36
2016-09-15T01:59:22.330Z,1013.31
2016-09-15T02:00:22.354Z,1013.33
2016-09-15T02:01:22.381Z,1013.33
2016-09-15T02:02:22.404Z,1013.31
2016-09-15T02:03:22.429Z,1013.28
2016-09-15T02:04:22.455Z,1013.29
2016-09-15T02:05:22.481Z,1013.26
2016-09-15T02:06:22.506Z,1013.25
2016-09-15T02:07:22.533Z,1013.21
2016-09-15T02:08:22.559Z,1013.25
2016-09-15T02:09:22.583Z,1013.25
2016-09-15T02:10:22.610Z,1013.27
2016-09-15T02:11:22.632Z,1013.29
2016-09-15T02:12:22.658Z,1013.3
2016-09-15T02:13:22.685Z,1013.32
2016-09-15T02:14:22.713Z,1013.32
2016-09-15T02:16:22.760Z,1013.33
2016-09-15T02:17:22.787Z,1013.35
2016-09-15T02:18:22.811Z,1013.3
2016-09-15T02:19:22.837Z,1013.32
2016-09-15T02:20:22.864Z,1013.3
2016-09-15T02:21:22.888Z,1013.29
2016-09-15T02:22:22.913Z,1013.28
2016-09-15T02:23:22.939Z,1013.22
2016-09-15T02:24:22.963Z,1013.21
2016-09-15T02:25:22.989Z,1013.22
2016-09-15T02:26:23.016Z,1013.23
2016-09-15T02:27:23.043Z,1013.22
2016-09-15T02:28:23.117Z,1013.19
2016-09-15T02:29:23.091Z,1013.17
2016-09-15T02:30:23.116Z,1013.18
2016-09-15T02:32:23.167Z,1013.22
2016-09-15T02:33:23.195Z,1013.15
2016-09-15T02:34:23.218Z,1013.26
2016-09-15T02:35:23.246Z,1013.2
2016-09-15T02:36:23.271Z,1013.17
2016-09-15T02:37:23.295Z,1013.18
2016-09-15T02:38:23.322Z,1013.13
2016-09-15T02:39:23.347Z,1013.13
2016-09-15T02:40:23.371Z,1013.17
2016-09-15T02:41:23.396Z,1013.14
2016-09-15T02:42:23.422Z,1013.15
2016-09-15T02:43:23.447Z,1013.13
2016-09-15T02:44:23.472Z,1013.16
2016-09-15T02:45:23.499Z,1013.16
2016-09-15T02:46:23.524Z,1013.19
2016-09-15T02:48:23.572Z,1013.16
2016-09-15T02:49:23.598Z,1013.15
2016-09-15T02:50:23.625Z,1013.14
2016-09-15T02:51:23.649Z,1013.12
2016-09-15T02:52:23.674Z,1013.14
2016-09-15T02:53:23.702Z,1013.13
2016-09-15T02:54:23.724Z,1013.17
2016-09-15T02:55:23.750Z,1013.13
2016-09-15T02:56:23.775Z,1013.17
2016-09-15T02:57:23.801Z,1013.14
2016-09-15T02:58:23.827Z,1013.14
2016-09-15T02:59:23.853Z,1013.12
2016-09-15T03:00:23.877Z,1013.14
2016-09-15T03:01:23.904Z,1013.12
2016-09-15T03:02:23.925Z,1013.08
2016-09-15T03:04:23.978Z,1013.06
2016-09-15T03:05:24.005Z,1013.03
2016-09-15T03:06:24.028Z,1013.02
2016-09-15T03:07:24.053Z,1013.06
2016-09-15T03:08:24.081Z,1013.04
2016-09-15T03:09:24.103Z,1013.01
2016-09-15T03:10:24.131Z,1013.03
2016-09-15T03:11:24.157Z,1013.01
2016-09-15T03:12:24.182Z,1013
2016-09-15T03:13:24.207Z,1013.09
2016-09-15T03:14:24.234Z,1013.08
2016-09-15T03:15:24.255Z,1013.11
2016-09-15T03:16:24.280Z,1013.11
2016-09-15T03:17:24.305Z,1013.1
2016-09-15T03:19:24.357Z,1013.06
2016-09-15T03:20:24.384Z,1013.06
2016-09-15T03:21:24.408Z,1013.04
2016-09-15T03:22:24.433Z,1013.06
2016-09-15T03:23:24.460Z,1013.03
2016-09-15T03:24:24.485Z,1013.06
2016-09-15T03:25:24.510Z,1013.06
2016-09-15T03:26:24.536Z,1013.06
2016-09-15T03:27:24.559Z,1013.07
2016-09-15T03:28:24.587Z,1013.05
2016-09-15T03:29:24.611Z,1013.06
2016-09-15T03:30:24.636Z,1013.04
2016-09-15T03:31:24.661Z,1013.02
2016-09-15T03:32:24.686Z,1013.03
2016-09-15T03:33:24.710Z,1013.01
2016-09-15T03:34:24.737Z,1013.02
2016-09-15T03:35:24.763Z,1012.98
2016-09-15T03:36:24.787Z,1012.97
2016-09-15T03:37:24.813Z,1012.98
2016-09-15T03:38:24.847Z,1012.95
2016-09-15T03:39:24.861Z,1012.95
2016-09-15T03:40:24.885Z,1012.94
2016-09-15T03:41:24.914Z,1012.95
2016-09-15T03:42:24.937Z,1012.96
2016-09-15T03:43:24.963Z,1012.98
2016-09-15T03:44:24.987Z,1012.99
2016-09-15T03:45:25.015Z,1012.98
2016-09-15T03:46:25.038Z,1012.96
2016-09-15T03:47:25.064Z,1012.97
2016-09-15T03:48:25.089Z,1012.95
2016-09-15T03:49:25.112Z,1012.97
2016-09-15T03:51:25.164Z,1012.96
2016-09-15T03:52:25.190Z,1012.96
2016-09-15T03:53:25.215Z,1012.97
2016-09-15T03:54:25.237Z,1012.97
2016-09-15T03:55:25.262Z,1012.97
2016-09-15T03:56:25.290Z,1012.97
2016-09-15T03:57:25.314Z,1012.97
2016-09-15T03:58:25.344Z,1012.99
2016-09-15T03:59:25.363Z,1012.97
2016-09-15T04:00:25.387Z,1012.97
2016-09-15T04:01:25.412Z,1012.97
2016-09-15T04:02:25.439Z,1012.97
2016-09-15T04:03:25.463Z,1012.98
2016-09-15T04:04:25.487Z,1012.98
2016-09-15T04:05:25.514Z,1012.95
2016-09-15T04:07:25.572Z,1012.94
2016-09-15T04:08:25.590Z,1012.93
2016-09-15T04:09:25.613Z,1012.95
2016-09-15T04:10:25.639Z,1012.93
2016-09-15T04:11:25.665Z,1012.92
2016-09-15T04:12:25.690Z,1012.94
2016-09-15T04:13:25.714Z,1012.94
2016-09-15T04:14:25.741Z,1012.92
2016-09-15T04:15:25.766Z,1012.97
2016-09-15T04:16:25.788Z,1012.94
2016-09-15T04:17:25.814Z,1012.9
2016-09-15T04:18:25.840Z,1012.89
2016-09-15T04:19:25.864Z,1012.93
2016-09-15T04:20:25.889Z,1012.9
2016-09-15T04:21:25.915Z,1012.84
2016-09-15T04:23:25.964Z,1012.88
2016-09-15T04:24:25.991Z,1012.87
2016-09-15T04:25:26.016Z,1012.87
2016-09-15T04:26:26.039Z,1012.91
2016-09-15T04:27:26.066Z,1012.92
2016-09-15T04:28:26.091Z,1012.9
2016-09-15T04:29:26.117Z,1012.94
2016-09-15T04:30:26.141Z,1012.9
2016-09-15T04:31:26.164Z,1012.91
2016-09-15T04:32:26.190Z,1012.93
2016-09-15T04:33:26.220Z,1012.9
2016-09-15T04:34:26.245Z,1012.88
2016-09-15T04:35:26.267Z,1012.91
2016-09-15T04:36:26.292Z,1012.89
2016-09-15T04:37:26.315Z,1012.94
2016-09-15T04:39:26.366Z,1012.93
2016-09-15T04:40:26.392Z,1012.98
2016-09-15T04:41:26.413Z,1012.98
2016-09-15T04:42:26.439Z,1012.95
2016-09-15T04:43:26.464Z,1012.94
2016-09-15T04:44:26.491Z,1013
2016-09-15T04:45:26.514Z,1012.98
2016-09-15T04:46:26.541Z,1013.01
2016-09-15T04:47:26.566Z,1013.03
2016-09-15T04:48:26.591Z,1013.04
2016-09-15T04:49:26.615Z,1013.08
2016-09-15T04:50:26.641Z,1013.03
2016-09-15T04:51:26.663Z,1013.06
2016-09-15T04:52:26.692Z,1013
2016-09-15T04:54:26.740Z,1013.03
2016-09-15T04:55:26.767Z,1013.04
2016-09-15T04:56:26.789Z,1013
2016-09-15T04:57:26.816Z,1013.02
2016-09-15T04:58:26.840Z,1013.02
2016-09-15T04:59:26.867Z,1013
2016-09-15T05:00:26.889Z,1012.99
2016-09-15T05:01:26.915Z,1012.96
2016-09-15T05:02:26.940Z,1013.04
2016-09-15T05:03:26.968Z,1013.01
2016-09-15T05:04:26.991Z,1013
2016-09-15T05:05:27.015Z,1013.01
2016-09-15T05:06:27.041Z,1013.03
2016-09-15T05:07:27.066Z,1013
2016-09-15T05:08:27.091Z,1012.98
2016-09-15T05:09:27.114Z,1013.04
2016-09-15T05:10:27.141Z,1012.98
2016-09-15T05:11:27.166Z,1013.01
2016-09-15T05:12:27.189Z,1013.01
2016-09-15T05:13:27.214Z,1013.01
2016-09-15T05:14:27.241Z,1013.09
2016-09-15T05:15:27.266Z,1013.04
2016-09-15T05:16:27.290Z,1013.12
2016-09-15T05:17:27.315Z,1013.15
2016-09-15T05:18:27.342Z,1013.17
2016-09-15T05:19:27.364Z,1013.11
2016-09-15T05:20:27.392Z,1013.16
2016-09-15T05:21:27.413Z,1013.11
2016-09-15T05:22:27.440Z,1013.1
2016-09-15T05:23:27.464Z,1013.12
2016-09-15T05:24:27.489Z,1013.11
2016-09-15T05:26:27.540Z,1013.15
2016-09-15T05:27:27.566Z,1013.14
2016-09-15T05:28:27.595Z,1013.16
2016-09-15T05:29:27.617Z,1013.17
2016-09-15T05:30:27.642Z,1013.14
2016-09-15T05:31:27.667Z,1013.11
2016-09-15T05:32:27.693Z,1013.09
2016-09-15T05:33:27.719Z,1013.1
2016-09-15T05:34:27.741Z,1013.13
2016-09-15T05:35:27.817Z,1013.08
2016-09-15T05:36:27.793Z,1013.12
2016-09-15T05:37:27.819Z,1013.11
2016-09-15T05:38:27.844Z,1013.07
2016-09-15T05:39:27.871Z,1013.08
2016-09-15T05:40:27.895Z,1013.04
2016-09-15T05:42:27.945Z,1013.06
2016-09-15T05:43:27.971Z,1013.09
2016-09-15T05:44:27.994Z,1013.07
2016-09-15T05:45:28.022Z,1013.07
2016-09-15T05:46:28.046Z,1013.08
2016-09-15T05:47:28.070Z,1013.02
2016-09-15T05:48:28.096Z,1013.04
2016-09-15T05:49:28.121Z,1013
2016-09-15T05:50:28.147Z,1013.05
2016-09-15T05:51:28.173Z,1013.03
2016-09-15T05:52:28.196Z,1013.09
2016-09-15T05:53:28.222Z,1013.26
2016-09-15T05:54:28.247Z,1013.43
2016-09-15T05:55:28.273Z,1013.49
2016-09-15T05:56:28.299Z,1013.56
2016-09-15T05:58:28.349Z,1013.59
2016-09-15T05:59:28.376Z,1013.62
2016-09-15T06:00:28.403Z,1013.62
2016-09-15T06:01:28.430Z,1013.6
2016-09-15T06:02:28.459Z,1013.62
2016-09-15T06:03:28.485Z,1013.64
2016-09-15T06:04:28.516Z,1013.68
2016-09-15T06:05:28.544Z,1013.68
2016-09-15T06:06:28.570Z,1013.69
2016-09-15T06:07:28.601Z,1013.73
2016-09-15T06:08:28.631Z,1013.77
2016-09-15T06:09:28.658Z,1013.75
2016-09-15T06:10:28.690Z,1013.79
2016-09-15T06:11:28.721Z,1013.8
2016-09-15T06:12:28.753Z,1013.92
2016-09-15T06:14:28.814Z,1014.04
2016-09-15T06:15:28.848Z,1014.08
2016-09-15T06:16:28.877Z,1014.12
2016-09-15T06:17:28.910Z,1014.17
2016-09-15T06:18:28.944Z,1014.26
2016-09-15T06:19:28.974Z,1014.26
2016-09-15T06:20:29.006Z,1014.28
2016-09-15T06:21:29.042Z,1014.34
2016-09-15T06:22:29.073Z,1014.36
2016-09-15T06:23:29.111Z,1014.35
2016-09-15T06:24:29.141Z,1014.37
2016-09-15T06:25:29.176Z,1014.46
2016-09-15T06:26:29.208Z,1014.48
2016-09-15T06:27:29.242Z,1014.46
2016-09-15T06:29:29.311Z,1014.5
2016-09-15T06:30:29.343Z,1014.55
2016-09-15T06:31:29.377Z,1014.58
2016-09-15T06:32:29.412Z,1014.62
2016-09-15T06:33:29.449Z,1014.64
2016-09-15T06:34:29.483Z,1014.71
2016-09-15T06:35:29.518Z,1014.7
2016-09-15T06:36:29.553Z,1014.74
2016-09-15T06:37:29.590Z,1014.74
2016-09-15T06:38:29.620Z,1014.8
2016-09-15T06:39:29.657Z,1014.82
2016-09-15T06:40:29.695Z,1014.77
2016-09-15T06:41:29.726Z,1014.82
2016-09-15T06:42:29.761Z,1014.76
2016-09-15T06:43:29.797Z,1014.75
2016-09-15T06:44:29.831Z,1014.76
2016-09-15T06:45:29.868Z,1014.77
2016-09-15T06:46:29.900Z,1014.67
2016-09-15T06:47:29.938Z,1014.61
2016-09-15T06:48:29.972Z,1014.57
2016-09-15T06:49:30.006Z,1014.55
2016-09-15T06:50:30.043Z,1014.53
2016-09-15T06:51:30.080Z,1014.52
2016-09-15T06:52:30.112Z,1014.51
2016-09-15T06:53:30.150Z,1014.59
2016-09-15T06:54:30.234Z,1014.53
2016-09-15T06:55:30.222Z,1014.52
2016-09-15T06:56:30.255Z,1014.55
2016-09-15T06:57:30.291Z,1014.51
2016-09-15T06:58:30.327Z,1014.46
2016-09-15T06:59:30.361Z,1014.43
2016-09-15T07:01:30.435Z,1014.46
2016-09-15T07:02:30.470Z,1014.45
2016-09-15T07:03:30.507Z,1014.42
2016-09-15T07:04:30.542Z,1014.46
2016-09-15T07:05:30.577Z,1014.36
2016-09-15T07:06:30.615Z,1014.37
2016-09-15T07:07:30.650Z,1014.35
2016-09-15T07:08:30.684Z,1014.34
2016-09-15T07:09:30.721Z,1014.33
2016-09-15T07:10:30.756Z,1014.3
2016-09-15T07:11:30.792Z,1014.3
2016-09-15T07:12:30.830Z,1014.3
2016-09-15T07:13:30.864Z,1014.33
2016-09-15T07:14:30.900Z,1014.33
2016-09-15T07:15:30.938Z,1014.31
2016-09-15T07:17:31.010Z,1014.24
2016-09-15T07:18:31.043Z,1014.25
2016-09-15T07:19:31.080Z,1014.21
2016-09-15T07:20:31.115Z,1014.23
2016-09-15T07:21:31.152Z,1014.26
2016-09-15T07:22:31.189Z,1014.26
2016-09-15T07:23:31.224Z,1014.24
2016-09-15T07:24:31.263Z,1014.26
2016-09-15T07:25:31.296Z,1014.23
2016-09-15T07:26:31.332Z,1014.19
2016-09-15T07:27:31.368Z,1014.19
2016-09-15T07:28:31.405Z,1014.13
2016-09-15T07:29:31.440Z,1014.12
2016-09-15T07:30:31.478Z,1014.09
2016-09-15T07:31:31.514Z,1014.08
2016-09-15T07:33:31.584Z,1014.08
2016-09-15T07:34:31.621Z,1014.11
2016-09-15T07:35:31.657Z,1014.14
2016-09-15T07:36:31.692Z,1014.16
2016-09-15T07:37:31.730Z,1014.19
2016-09-15T07:38:31.764Z,1014.18
2016-09-15T07:39:31.800Z,1014.16
2016-09-15T07:40:31.840Z,1014.18
2016-09-15T07:41:31.873Z,1014.16
2016-09-15T07:42:31.909Z,1014.12
2016-09-15T07:43:31.943Z,1013.94
2016-09-15T07:44:31.982Z,1013.79
2016-09-15T07:45:32.018Z,1013.78
2016-09-15T07:46:32.054Z,1013.74
2016-09-15T07:47:32.089Z,1013.72
2016-09-15T07:49:32.159Z,1013.67
2016-09-15T07:50:32.197Z,1013.62
2016-09-15T07:51:32.233Z,1013.61
2016-09-15T07:52:32.268Z,1013.63
2016-09-15T07:53:32.302Z,1013.61
2016-09-15T07:54:32.340Z,1013.61
2016-09-15T07:55:33.427Z,1013.56
2016-09-15T07:56:32.408Z,1013.57
2016-09-15T07:57:32.447Z,1013.59
2016-09-15T07:58:32.480Z,1013.57
2016-09-15T07:59:32.515Z,1013.56
2016-09-15T08:00:32.551Z,1013.62
2016-09-15T08:01:32.588Z,1013.59
2016-09-15T08:02:32.624Z,1013.57
2016-09-15T08:04:32.695Z,1013.51
2016-09-15T08:05:32.731Z,1013.5
2016-09-15T08:06:32.764Z,1013.5
2016-09-15T08:07:32.802Z,1013.49
2016-09-15T08:08:32.838Z,1013.5
2016-09-15T08:09:32.871Z,1013.44
2016-09-15T08:10:32.909Z,1013.49
2016-09-15T08:11:32.941Z,1013.54
2016-09-15T08:12:32.978Z,1013.51
2016-09-15T08:13:33.012Z,1013.5
2016-09-15T08:14:33.049Z,1013.48
2016-09-15T08:15:33.083Z,1013.49
2016-09-15T08:16:33.119Z,1013.48
2016-09-15T08:17:33.154Z,1013.47
2016-09-15T08:18:33.191Z,1013.55
2016-09-15T08:19:33.226Z,1013.5
2016-09-15T08:20:33.260Z,1013.51
2016-09-15T08:21:33.295Z,1013.49
2016-09-15T08:22:33.328Z,1013.46
2016-09-15T08:23:33.365Z,1013.42
2016-09-15T08:24:33.402Z,1013.44
2016-09-15T08:25:33.435Z,1013.43
2016-09-15T08:26:33.468Z,1013.37
2016-09-15T08:27:33.506Z,1013.36
2016-09-15T08:28:33.539Z,1013.35
2016-09-15T08:29:33.576Z,1013.4
2016-09-15T08:30:33.611Z,1013.38
2016-09-15T08:31:33.645Z,1013.38
2016-09-15T08:32:33.681Z,1013.36
2016-09-15T08:33:33.716Z,1013.34
2016-09-15T08:34:33.749Z,1013.4
2016-09-15T08:36:33.820Z,1013.43
2016-09-15T08:37:33.855Z,1013.43
2016-09-15T08:38:33.890Z,1013.41
2016-09-15T08:39:33.925Z,1013.45
2016-09-15T08:40:33.959Z,1013.43
2016-09-15T08:41:33.994Z,1013.45
2016-09-15T08:42:34.029Z,1013.44
2016-09-15T08:43:34.065Z,1013.4
2016-09-15T08:44:34.100Z,1013.38
2016-09-15T08:45:34.134Z,1013.41
2016-09-15T08:46:34.167Z,1013.38
2016-09-15T08:47:34.203Z,1013.38
2016-09-15T08:48:34.238Z,1013.44
2016-09-15T08:49:34.273Z,1013.33
2016-09-15T08:50:34.307Z,1013.35
2016-09-15T08:52:34.377Z,1013.3
2016-09-15T08:53:34.410Z,1013.3
2016-09-15T08:54:34.445Z,1013.28
2016-09-15T08:55:34.483Z,1013.27
2016-09-15T08:56:34.516Z,1013.25
2016-09-15T08:57:34.551Z,1013.28
2016-09-15T08:58:34.586Z,1013.27
2016-09-15T08:59:34.620Z,1013.27
2016-09-15T09:00:34.653Z,1013.28
2016-09-15T09:01:34.688Z,1013.26
2016-09-15T09:02:34.724Z,1013.24
2016-09-15T09:03:34.757Z,1013.24
2016-09-15T09:04:34.792Z,1013.25
2016-09-15T09:05:34.828Z,1013.25
2016-09-15T09:06:34.863Z,1013.19
2016-09-15T09:08:34.929Z,1013.22
2016-09-15T09:09:34.964Z,1013.18
2016-09-15T09:10:34.999Z,1013.17
2016-09-15T09:11:35.032Z,1013.24
2016-09-15T09:12:35.069Z,1013.21
2016-09-15T09:13:35.103Z,1013.13
2016-09-15T09:14:35.138Z,1013.22
2016-09-15T09:15:35.169Z,1013.17
2016-09-15T09:16:35.206Z,1013.19
2016-09-15T09:17:35.240Z,1013.2
2016-09-15T09:18:35.274Z,1013.17
2016-09-15T09:19:35.306Z,1013.22
2016-09-15T09:20:35.343Z,1013.19
2016-09-15T09:21:35.378Z,1013.13
2016-09-15T09:22:35.409Z,1013.14
2016-09-15T09:24:35.479Z,1013.12
2016-09-15T09:25:35.514Z,1013.19
2016-09-15T09:26:35.544Z,1013.12
2016-09-15T09:27:35.582Z,1013.16
2016-09-15T09:28:35.615Z,1013.14
2016-09-15T09:29:35.647Z,1013.13
2016-09-15T09:30:35.681Z,1013.12
2016-09-15T09:31:35.715Z,1013.09
2016-09-15T09:32:35.751Z,1013.2
2016-09-15T09:33:35.784Z,1013.09
2016-09-15T09:34:35.817Z,1013.09
2016-09-15T09:35:35.850Z,1013.05
2016-09-15T09:36:35.888Z,1013.03
2016-09-15T09:37:35.918Z,1013.05
2016-09-15T09:39:35.989Z,1013.02
2016-09-15T09:40:36.022Z,1013.04
2016-09-15T09:41:36.054Z,1013
2016-09-15T09:42:36.090Z,1013
2016-09-15T09:43:36.123Z,1013.07
2016-09-15T09:44:36.154Z,1013.03
2016-09-15T09:45:36.189Z,1012.97
2016-09-15T09:46:36.224Z,1012.92
2016-09-15T09:47:36.257Z,1012.96
2016-09-15T09:48:36.289Z,1012.88
2016-09-15T09:49:36.325Z,1012.87
2016-09-15T09:50:36.358Z,1012.88
2016-09-15T09:51:36.390Z,1012.94
2016-09-15T09:52:36.425Z,1012.84
2016-09-15T09:53:36.456Z,1012.87
2016-09-15T09:54:36.491Z,1012.84
2016-09-15T09:55:36.523Z,1012.85
2016-09-15T09:56:36.557Z,1012.88
2016-09-15T09:57:36.591Z,1012.88
2016-09-15T09:58:36.624Z,1012.84
2016-09-15T09:59:36.660Z,1012.81
2016-09-15T10:00:36.691Z,1012.77
2016-09-15T10:01:36.725Z,1012.8
2016-09-15T10:02:36.759Z,1012.8
2016-09-15T10:03:36.791Z,1012.78
2016-09-15T10:04:36.826Z,1012.71
2016-09-15T10:05:36.860Z,1012.73
2016-09-15T10:06:36.893Z,1012.72
2016-09-15T10:07:36.924Z,1012.78
2016-09-15T10:08:36.958Z,1012.78
2016-09-15T10:09:36.993Z,1012.73
2016-09-15T10:11:37.057Z,1012.8
2016-09-15T10:12:37.093Z,1012.76
2016-09-15T10:13:37.123Z,1012.73
2016-09-15T10:14:37.159Z,1012.68
2016-09-15T10:15:37.189Z,1012.74
2016-09-15T10:16:37.223Z,1012.71
2016-09-15T10:17:37.258Z,1012.71
2016-09-15T10:18:37.289Z,1012.68
2016-09-15T10:19:37.324Z,1012.63
2016-09-15T10:20:37.356Z,1012.63
2016-09-15T10:21:37.387Z,1012.64
2016-09-15T10:22:37.422Z,1012.62
2016-09-15T10:23:37.454Z,1012.66
2016-09-15T10:24:37.487Z,1012.62
2016-09-15T10:25:37.518Z,1012.64
2016-09-15T10:27:37.584Z,1012.58
2016-09-15T10:28:37.618Z,1012.55
2016-09-15T10:29:37.649Z,1012.56
2016-09-15T10:30:37.680Z,1012.56
2016-09-15T10:31:37.712Z,1012.59
2016-09-15T10:32:37.748Z,1012.51
2016-09-15T10:33:37.780Z,1012.53
2016-09-15T10:34:37.812Z,1012.51
2016-09-15T10:35:37.841Z,1012.54
2016-09-15T10:36:37.876Z,1012.53
2016-09-15T10:37:37.907Z,1012.47
2016-09-15T10:38:37.940Z,1012.42
2016-09-15T10:39:37.971Z,1012.39
2016-09-15T10:40:38.001Z,1012.44
2016-09-15T10:41:38.035Z,1012.5
2016-09-15T10:43:38.098Z,1012.54
2016-09-15T10:44:38.130Z,1012.5
2016-09-15T10:45:38.160Z,1012.51
2016-09-15T10:46:38.192Z,1012.48
2016-09-15T10:47:38.224Z,1012.52
2016-09-15T10:48:38.255Z,1012.51
2016-09-15T10:49:38.284Z,1012.49
2016-09-15T10:50:38.321Z,1012.49
2016-09-15T10:51:38.346Z,1012.43
2016-09-15T10:52:38.378Z,1012.47
2016-09-15T10:53:38.410Z,1012.42
2016-09-15T10:54:38.440Z,1012.44
2016-09-15T10:55:38.471Z,1012.42
2016-09-15T10:56:38.502Z,1012.42
2016-09-15T10:57:38.539Z,1012.38
2016-09-15T10:59:38.596Z,1012.44
2016-09-15T11:00:38.625Z,1012.45
2016-09-15T11:01:38.657Z,1012.39
2016-09-15T11:02:38.686Z,1012.42
2016-09-15T11:03:38.718Z,1012.38
2016-09-15T11:04:38.750Z,1012.38
2016-09-15T11:05:38.780Z,1012.38
2016-09-15T11:06:38.813Z,1012.29
2016-09-15T11:07:38.840Z,1012.29
2016-09-15T11:08:38.874Z,1012.31
2016-09-15T11:09:38.901Z,1012.3
2016-09-15T11:10:38.933Z,1012.34
2016-09-15T11:11:38.965Z,1012.27
2016-09-15T11:12:38.994Z,1012.27
2016-09-15T11:14:39.055Z,1012.29
2016-09-15T11:15:39.085Z,1012.27
2016-09-15T11:16:39.121Z,1012.32
2016-09-15T11:17:39.145Z,1012.29
2016-09-15T11:18:39.180Z,1012.27
2016-09-15T11:19:39.206Z,1012.28
2016-09-15T11:20:39.239Z,1012.26
2016-09-15T11:21:39.269Z,1012.23
2016-09-15T11:22:39.299Z,1012.28
2016-09-15T11:23:39.330Z,1012.28
2016-09-15T11:24:39.359Z,1012.27
2016-09-15T11:25:39.389Z,1012.26
2016-09-15T11:26:39.420Z,1012.23
2016-09-15T11:27:39.449Z,1012.24
2016-09-15T11:28:39.479Z,1012.23
2016-09-15T11:29:39.512Z,1012.18
2016-09-15T11:30:39.539Z,1012.15
2016-09-15T11:31:39.570Z,1012.15
2016-09-15T11:32:39.603Z,1012.18
2016-09-15T11:33:39.630Z,1012.18
2016-09-15T11:34:39.663Z,1012.15
2016-09-15T11:35:39.699Z,1012.11
2016-09-15T11:36:39.723Z,1012.07
2016-09-15T11:37:39.751Z,1012.09
2016-09-15T11:38:39.784Z,1012.12
2016-09-15T11:39:39.813Z,1012.09
2016-09-15T11:40:39.842Z,1012.09
2016-09-15T11:41:39.871Z,1012.08
2016-09-15T11:42:39.904Z,1012.04
2016-09-15T11:43:39.933Z,1012.02
2016-09-15T11:44:39.964Z,1012.05
2016-09-15T11:46:40.023Z,1011.95
2016-09-15T11:47:40.056Z,1011.92
2016-09-15T11:48:40.084Z,1011.93
2016-09-15T11:49:40.114Z,1011.89
2016-09-15T11:50:40.144Z,1011.93
2016-09-15T11:51:40.175Z,1011.94
2016-09-15T11:52:40.203Z,1011.93
2016-09-15T11:53:40.235Z,1012
2016-09-15T11:54:40.263Z,1011.96
2016-09-15T11:55:40.293Z,1011.92
2016-09-15T11:56:40.322Z,1011.91
2016-09-15T11:57:40.355Z,1011.93
2016-09-15T11:58:40.383Z,1011.95
2016-09-15T11:59:40.412Z,1011.85
2016-09-15T12:00:40.445Z,1011.87
2016-09-15T12:02:40.505Z,1011.84
2016-09-15T12:03:40.532Z,1011.85
2016-09-15T12:04:40.561Z,1011.81
2016-09-15T12:05:40.594Z,1011.8
2016-09-15T12:06:40.623Z,1011.76
2016-09-15T12:07:40.653Z,1011.82
2016-09-15T12:08:40.684Z,1011.78
2016-09-15T12:09:40.711Z,1011.74
2016-09-15T12:10:40.740Z,1011.71
2016-09-15T12:11:40.772Z,1011.69
2016-09-15T12:12:40.802Z,1011.75
2016-09-15T12:13:40.831Z,1011.73
2016-09-15T12:14:40.863Z,1011.7
2016-09-15T12:15:40.891Z,1011.68
2016-09-15T12:16:40.923Z,1011.68
2016-09-15T12:18:40.981Z,1011.63
2016-09-15T12:19:41.009Z,1011.6
2016-09-15T12:20:41.042Z,1011.57
2016-09-15T12:21:41.069Z,1011.54
2016-09-15T12:22:41.098Z,1011.56
2016-09-15T12:23:41.134Z,1011.53
2016-09-15T12:24:41.159Z,1011.55
2016-09-15T12:25:41.190Z,1011.57
2016-09-15T12:26:41.218Z,1011.54
2016-09-15T12:27:41.251Z,1011.5
2016-09-15T12:28:41.277Z,1011.49
2016-09-15T12:29:41.308Z,1011.45
2016-09-15T12:30:41.340Z,1011.49
2016-09-15T12:31:41.370Z,1011.5
2016-09-15T12:32:41.401Z,1011.48
2016-09-15T12:34:41.460Z,1011.46
2016-09-15T12:35:41.489Z,1011.37
2016-09-15T12:36:41.519Z,1011.33
2016-09-15T12:37:41.596Z,1011.3
2016-09-15T12:38:41.577Z,1011.34
2016-09-15T12:39:41.606Z,1011.4
2016-09-15T12:40:41.638Z,1011.33
2016-09-15T12:41:41.666Z,1011.35
2016-09-15T12:42:41.698Z,1011.32
2016-09-15T12:43:41.726Z,1011.29
2016-09-15T12:44:41.755Z,1011.28
2016-09-15T12:45:41.785Z,1011.3
2016-09-15T12:46:41.818Z,1011.27
2016-09-15T12:47:41.846Z,1011.27
2016-09-15T12:49:41.908Z,1011.27